Time;durP1;ratioP1;P1;durP2;ratioP2;P2;SDS_P1;SDS_P2;PMS_P1;PMS_P2;Temp;Humidity;BMP_temperature;BMP_pressure;BME280_temperature;BME280_humidity;BME280_pressure;Samples;Min_cycle;Max_cycle;Signal;HPM_P1;HPM_P2
2024/02/15 00:00:15;;;;;;;3.92;2.38;;;3.60;60.00;;;;;;5054526;28;20078;-72
2024/02/15 00:02:42;;;;;;;2.30;1.45;;;3.50;59.80;;;;;;5071269;28;20409;-72
2024/02/15 00:05:08;;;;;;;5.05;2.65;;;3.50;60.60;;;;;;5072653;28;20039;-72
2024/02/15 00:07:34;;;;;;;8.57;2.20;;;3.50;60.70;;;;;;5071419;28;20044;-72
2024/02/15 00:10:01;;;;;;;6.57;3.03;;;3.50;60.70;;;;;;5054344;28;20032;-72
2024/02/15 00:12:27;;;;;;;4.30;1.95;;;3.50;60.80;;;;;;5070513;28;20056;-72
2024/02/15 00:14:53;;;;;;;3.65;1.92;;;3.40;61.10;;;;;;5071311;28;20035;-72
2024/02/15 00:17:19;;;;;;;3.80;2.38;;;3.40;60.80;;;;;;5071222;28;20400;-72
2024/02/15 00:19:46;;;;;;;8.65;3.50;;;3.40;60.90;;;;;;5071076;28;20066;-72
2024/02/15 00:22:12;;;;;;;6.68;2.60;;;3.40;61.00;;;;;;5071659;28;20044;-72
2024/02/15 00:24:38;;;;;;;;;;;3.30;60.80;;;;;;5071841;28;20024;-72
2024/02/15 00:27:05;;;;;;;4.00;2.15;;;3.30;61.00;;;;;;5071383;28;20027;-72
2024/02/15 00:29:31;;;;;;;5.50;2.67;;;3.30;61.10;;;;;;5071146;28;20490;-71
2024/02/15 00:31:57;;;;;;;5.22;2.58;;;3.30;61.30;;;;;;5071719;28;20090;-72
2024/02/15 00:34:26;;;;;;;3.72;2.97;;;3.30;61.20;;;;;;5072395;28;20028;-72
2024/02/15 00:36:52;;;;;;;4.18;2.10;;;3.30;61.10;;;;;;5072246;28;20056;-72
2024/02/15 00:39:18;;;;;;;4.85;2.10;;;3.20;61.10;;;;;;5054114;28;20384;-72
2024/02/15 00:41:45;;;;;;;3.35;2.67;;;3.20;62.00;;;;;;5071719;28;20045;-71
2024/02/15 00:44:11;;;;;;;4.43;2.80;;;3.20;61.40;;;;;;5072033;28;20116;-72
2024/02/15 00:46:38;;;;;;;3.65;3.03;;;3.20;60.90;;;;;;5070648;28;20097;-71
2024/02/15 00:51:49;;;;;;;8.32;4.93;;;3.10;62.00;;;;;;5070068;28;20508;-72
2024/02/15 00:54:16;;;;;;;6.63;2.90;;;3.10;61.70;;;;;;5071498;28;20029;-72
2024/02/15 00:56:42;;;;;;;8.30;3.83;;;3.10;61.40;;;;;;5070547;28;20047;-72
2024/02/15 00:59:09;;;;;;;8.45;4.25;;;3.00;61.90;;;;;;5071679;28;20575;-72
2024/02/15 01:04:21;;;;;;;5.15;3.10;;;3.00;62.10;;;;;;5071757;28;20060;-72
2024/02/15 01:06:47;;;;;;;4.90;2.55;;;3.00;62.30;;;;;;5070224;28;20032;-72
2024/02/15 01:09:14;;;;;;;7.47;4.32;;;2.90;62.40;;;;;;5070381;28;20508;-71
2024/02/15 01:11:40;;;;;;;4.80;2.60;;;2.90;62.40;;;;;;5069674;28;20036;-71
2024/02/15 01:14:09;;;;;;;3.63;2.53;;;2.90;62.50;;;;;;5071523;28;20029;-71
2024/02/15 01:16:36;;;;;;;3.80;1.48;;;2.80;62.50;;;;;;5070038;28;20037;-72
2024/02/15 01:19:03;;;;;;;7.35;3.97;;;2.80;62.40;;;;;;5069945;28;20038;-71
2024/02/15 01:21:30;;;;;;;5.07;2.15;;;2.80;62.40;;;;;;5071022;28;20033;-72
2024/02/15 01:23:56;;;;;;;7.93;2.83;;;2.80;62.40;;;;;;5071365;28;20453;-72
2024/02/15 01:26:23;;;;;;;5.25;2.35;;;2.80;62.60;;;;;;5070014;28;20028;-71
2024/02/15 01:28:49;;;;;;;6.95;3.75;;;2.80;62.70;;;;;;5071318;28;20061;-72
2024/02/15 01:31:16;;;;;;;5.85;2.95;;;2.70;62.80;;;;;;5069307;28;20033;-72
2024/02/15 01:33:46;;;;;;;7.22;3.45;;;2.70;63.20;;;;;;5071229;28;20025;-72
2024/02/15 01:36:30;;;;;;;3.97;2.60;;;2.60;63.00;;;;;;5070037;28;20052;-72
2024/02/15 01:38:56;;;;;;;7.75;4.85;;;2.70;63.10;;;;;;5069769;28;20127;-72
2024/02/15 01:41:23;;;;;;;4.88;2.95;;;2.60;63.40;;;;;;5069058;28;20090;-72
2024/02/15 01:43:49;;;;;;;6.72;3.10;;;2.60;63.50;;;;;;5069682;28;20028;-72
2024/02/15 01:46:17;;;;;;;4.88;2.40;;;2.60;63.10;;;;;;5069567;28;20528;-72
2024/02/15 01:48:43;;;;;;;5.47;4.10;;;2.60;62.70;;;;;;5070013;28;20087;-71
2024/02/15 01:51:11;;;;;;;8.50;2.80;;;2.60;62.50;;;;;;5069320;28;20029;-72
2024/02/15 01:53:38;;;;;;;3.78;2.03;;;2.60;62.50;;;;;;5070044;28;20354;-72
2024/02/15 01:56:05;;;;;;;3.13;1.90;;;2.60;62.60;;;;;;5069882;28;20046;-71
2024/02/15 01:58:32;;;;;;;7.15;3.67;;;2.60;62.90;;;;;;5069765;28;20234;-72
2024/02/15 02:01:01;;;;;;;20.13;8.45;;;2.60;62.90;;;;;;5070678;28;20048;-71
2024/02/15 02:03:27;;;;;;;18.13;6.68;;;2.60;62.70;;;;;;5053041;28;20440;-72
2024/02/15 02:05:53;;;;;;;18.85;8.48;;;2.60;62.40;;;;;;5073675;28;20028;-72
2024/02/15 02:08:19;;;;;;;13.93;8.43;;;2.60;63.10;;;;;;5074059;28;20087;-72
2024/02/15 02:10:46;;;;;;;6.70;3.35;;;2.60;62.90;;;;;;5074509;28;20059;-71
2024/02/15 02:13:12;;;;;;;5.53;2.30;;;2.50;63.00;;;;;;5075346;28;20044;-72
2024/02/15 02:15:39;;;;;;;7.93;4.13;;;2.40;62.90;;;;;;5057162;28;20040;-71
2024/02/15 02:20:50;;;;;;;9.38;2.63;;;2.30;62.90;;;;;;5074480;28;20052;-72
2024/02/15 02:23:20;;;;;;;4.85;2.03;;;2.30;63.10;;;;;;5074115;28;20049;-72
2024/02/15 02:25:49;;;;;;;5.60;2.67;;;2.20;63.40;;;;;;5057459;28;20140;-71
2024/02/15 02:28:18;;;;;;;8.38;3.95;;;2.20;63.40;;;;;;5073047;28;20040;-72
2024/02/15 02:30:45;;;;;;;7.97;3.30;;;2.20;63.40;;;;;;5072645;28;20384;-72
2024/02/15 02:35:58;;;;;;;4.68;2.13;;;2.20;63.20;;;;;;5073563;28;20032;-71
2024/02/15 02:38:26;;;;;;;5.90;2.05;;;2.20;63.60;;;;;;5074576;28;20039;-72
2024/02/15 02:40:52;;;;;;;4.20;2.15;;;2.10;64.10;;;;;;5073841;28;20057;-71
2024/02/15 02:43:18;;;;;;;;;;;2.10;63.70;;;;;;5074032;28;20037;-72
2024/02/15 02:45:45;;;;;;;3.33;2.53;;;2.10;63.60;;;;;;5073216;28;19920;-71
2024/02/15 02:48:11;;;;;;;4.72;2.42;;;2.00;63.40;;;;;;5056773;28;20040;-72
2024/02/15 02:50:38;;;;;;;3.67;2.33;;;2.00;64.20;;;;;;5073986;28;20508;-71
2024/02/15 02:53:05;;;;;;;6.03;2.50;;;2.00;64.00;;;;;;5056485;28;20090;-72
2024/02/15 02:55:31;;;;;;;9.40;2.92;;;2.00;64.30;;;;;;5073082;28;20064;-72
2024/02/15 02:57:57;;;;;;;4.10;2.35;;;2.10;64.10;;;;;;5074366;28;20082;-71
2024/02/15 03:00:23;;;;;;;3.85;2.50;;;2.00;64.20;;;;;;5073611;28;20045;-71
2024/02/15 03:02:49;;;;;;;4.78;3.28;;;2.00;64.30;;;;;;5074115;28;20079;-72
2024/02/15 03:05:15;;;;;;;6.32;3.38;;;2.00;63.80;;;;;;5073002;28;20033;-72
2024/02/15 03:07:41;;;;;;;5.20;3.40;;;2.00;64.10;;;;;;5072791;28;20043;-71
2024/02/15 03:10:09;;;;;;;3.85;2.53;;;2.10;64.30;;;;;;5071930;28;20469;-71
2024/02/15 03:12:37;;;;;;;5.65;2.78;;;2.00;64.20;;;;;;5072644;28;20477;-72
2024/02/15 03:15:04;;;;;;;5.70;2.50;;;2.00;64.20;;;;;;5072315;28;20060;-71
2024/02/15 03:17:33;;;;;;;3.17;1.58;;;2.00;64.20;;;;;;5073421;28;20040;-71
2024/02/15 03:20:00;;;;;;;8.50;4.13;;;2.00;64.40;;;;;;5072498;28;20040;-71
2024/02/15 03:22:29;;;;;;;7.68;3.35;;;2.00;64.50;;;;;;5073145;28;20123;-71
2024/02/15 03:24:55;;;;;;;6.78;2.85;;;1.90;64.90;;;;;;5072364;28;20024;-72
2024/02/15 03:27:22;;;;;;;7.50;3.60;;;2.00;64.80;;;;;;5072300;28;20512;-71
2024/02/15 03:29:49;;;;;;;5.78;3.00;;;2.00;64.70;;;;;;5073398;28;20024;-72
2024/02/15 03:32:16;;;;;;;5.32;2.90;;;1.90;64.70;;;;;;5073287;28;20049;-72
2024/02/15 03:34:42;;;;;;;4.82;2.90;;;1.90;65.10;;;;;;5073359;28;20028;-72
2024/02/15 03:37:09;;;;;;;3.22;2.50;;;1.90;64.60;;;;;;5072001;28;20036;-71
2024/02/15 03:39:35;;;;;;;5.05;1.90;;;2.00;65.20;;;;;;5073006;28;20063;-71
2024/02/15 03:42:01;;;;;;;5.07;2.83;;;1.90;64.70;;;;;;5071389;28;20058;-72
2024/02/15 03:44:27;;;;;;;3.00;1.35;;;1.90;64.40;;;;;;5073243;28;20031;-71
2024/02/15 03:46:54;;;;;;;5.55;3.25;;;1.80;64.40;;;;;;5071792;28;20505;-72
2024/02/15 03:49:22;;;;;;;3.55;2.33;;;1.80;64.50;;;;;;5072013;28;20029;-72
2024/02/15 03:51:49;;;;;;;2.95;2.42;;;1.80;64.50;;;;;;5071297;28;20063;-71
2024/02/15 03:54:15;;;;;;;8.30;3.38;;;1.80;64.50;;;;;;5072980;28;20024;-72
2024/02/15 03:57:00;;;;;;;4.10;2.13;;;1.70;65.00;;;;;;5071754;28;20044;-71
2024/02/15 03:59:26;;;;;;;5.10;3.67;;;1.70;65.00;;;;;;5072890;28;20500;-71
2024/02/15 04:02:14;;;;;;;5.85;2.40;;;1.70;65.00;;;;;;5071003;28;20037;-72
2024/02/15 04:04:46;;;;;;;6.80;3.53;;;1.70;65.00;;;;;;5072868;28;20083;-71
2024/02/15 04:07:31;;;;;;;4.93;2.75;;;1.70;65.20;;;;;;5071624;28;20036;-72
2024/02/15 04:09:57;;;;;;;5.97;2.72;;;1.60;65.10;;;;;;5071133;28;20032;-71
2024/02/15 04:12:23;;;;;;;4.13;2.97;;;1.70;65.30;;;;;;5072283;28;20493;-72
2024/02/15 04:14:50;;;;;;;8.98;4.13;;;1.70;65.00;;;;;;5071234;28;20074;-71
2024/02/15 04:17:17;;;;;;;5.82;3.63;;;1.60;64.90;;;;;;5072490;28;20044;-72
2024/02/15 04:20:04;;;;;;;6.43;2.13;;;1.70;65.00;;;;;;5072645;28;20032;-72
2024/02/15 04:22:31;;;;;;;4.85;2.25;;;1.60;65.10;;;;;;5070778;28;20156;-72
2024/02/15 04:24:57;;;;;;;3.88;2.38;;;1.60;65.00;;;;;;5072843;28;20120;-72
2024/02/15 04:27:23;;;;;;;4.97;2.38;;;1.60;64.90;;;;;;5071761;28;20430;-72
2024/02/15 04:29:50;;;;;;;4.15;2.88;;;1.60;64.50;;;;;;5071199;28;20032;-71
2024/02/15 04:32:16;;;;;;;4.15;2.20;;;1.50;64.70;;;;;;5072000;28;20044;-71
2024/02/15 04:34:42;;;;;;;3.33;1.88;;;1.40;64.90;;;;;;5072282;28;20084;-71
2024/02/15 04:37:08;;;;;;;;;;;1.50;64.90;;;;;;5072733;28;20051;-71
2024/02/15 04:39:53;;;;;;;2.88;1.60;;;1.40;64.70;;;;;;5070700;28;20343;-71
2024/02/15 04:42:19;;;;;;;5.88;2.22;;;1.40;64.90;;;;;;5070293;28;20092;-71
2024/02/15 04:44:45;;;;;;;6.43;5.15;;;1.30;65.40;;;;;;5070844;28;20396;-71
2024/02/15 04:47:11;;;;;;;8.20;4.57;;;1.30;65.40;;;;;;5070766;28;20561;-72
2024/02/15 04:49:38;;;;;;;4.82;2.60;;;1.40;65.00;;;;;;5071861;28;20028;-71
2024/02/15 04:52:05;;;;;;;4.32;2.80;;;1.40;65.00;;;;;;5069913;28;20071;-72
2024/02/15 04:54:32;;;;;;;9.90;3.40;;;1.40;64.90;;;;;;5070725;28;20041;-72
2024/02/15 04:56:58;;;;;;;5.22;2.50;;;1.40;64.90;;;;;;5070394;28;20533;-72
2024/02/15 05:02:09;;;;;;;3.30;2.28;;;1.40;64.20;;;;;;5071212;28;20408;-71
2024/02/15 05:04:36;;;;;;;4.22;2.47;;;1.30;65.30;;;;;;5070619;28;20064;-71
2024/02/15 05:07:03;;;;;;;6.00;3.47;;;1.30;65.60;;;;;;5070145;28;20037;-71
2024/02/15 05:09:31;;;;;;;5.20;3.10;;;1.20;65.60;;;;;;5071551;28;20021;-71
2024/02/15 05:12:02;;;;;;;9.20;3.22;;;1.20;65.50;;;;;;5069358;28;20068;-71
2024/02/15 05:14:28;;;;;;;5.65;3.65;;;1.30;65.50;;;;;;5070249;28;20041;-72
2024/02/15 05:16:54;;;;;;;13.82;4.80;;;1.30;65.50;;;;;;5071309;28;20500;-71
2024/02/15 05:19:21;;;;;;;7.63;3.65;;;1.30;65.70;;;;;;5070188;28;20036;-72
2024/02/15 05:21:47;;;;;;;6.38;2.35;;;1.30;65.70;;;;;;5069444;28;20062;-72
2024/02/15 05:24:14;;;;;;;;;;;1.30;65.80;;;;;;5070736;28;20131;-72
2024/02/15 05:26:59;;;;;;;2.72;2.15;;;1.30;65.50;;;;;;5053335;28;19962;-72
2024/02/15 05:29:25;;;;;;;2.60;1.55;;;1.20;65.60;;;;;;5069921;28;20040;-71
2024/02/15 05:31:51;;;;;;;3.92;2.35;;;1.20;65.90;;;;;;5069311;28;20040;-71
2024/02/15 05:34:18;;;;;;;8.90;4.68;;;1.30;65.90;;;;;;5069856;28;20028;-71
2024/02/15 05:36:44;;;;;;;5.43;2.95;;;1.30;66.00;;;;;;5069930;28;20033;-72
2024/02/15 05:39:11;;;;;;;3.25;2.00;;;1.30;66.10;;;;;;5069615;28;20037;-72
2024/02/15 05:41:37;;;;;;;8.40;4.65;;;1.20;66.00;;;;;;5052628;28;20481;-72
2024/02/15 05:44:06;;;;;;;;;;;1.20;65.20;;;;;;5071692;28;20036;-72
2024/02/15 05:46:36;;;;;;;3.90;1.88;;;1.20;65.60;;;;;;5053209;28;19912;-71
2024/02/15 05:49:04;;;;;;;8.32;3.65;;;1.20;64.90;;;;;;5069802;28;20396;-72
2024/02/15 05:51:31;;;;;;;4.30;2.25;;;1.20;65.80;;;;;;5068958;28;20449;-72
2024/02/15 05:56:42;;;;;;;6.70;2.13;;;1.20;65.30;;;;;;5071115;28;20036;-71
2024/02/15 05:59:15;;;;;;;6.40;3.30;;;1.20;66.20;;;;;;5069290;28;20028;-71
2024/02/15 06:01:41;;;;;;;4.43;2.05;;;1.10;66.30;;;;;;5069433;28;20454;-72
2024/02/15 06:04:08;;;;;;;1.95;1.52;;;1.20;66.30;;;;;;5069319;28;20036;-71
2024/02/15 06:06:58;;;;;;;7.50;3.45;;;1.20;66.00;;;;;;5070943;28;20431;-71
2024/02/15 06:09:26;;;;;;;3.20;1.92;;;1.20;66.40;;;;;;5069550;28;20469;-71
2024/02/15 06:11:55;;;;;;;5.43;2.33;;;1.20;66.50;;;;;;5052346;28;20064;-72
2024/02/15 06:14:21;;;;;;;4.43;2.10;;;1.20;66.50;;;;;;5070756;28;20063;-72
2024/02/15 06:16:48;;;;;;;;;;;1.20;66.50;;;;;;5071219;28;20236;-72
2024/02/15 06:19:14;;;;;;;4.40;2.67;;;1.20;66.10;;;;;;5052844;28;19960;-72
2024/02/15 06:21:40;;;;;;;3.88;1.88;;;1.30;66.30;;;;;;5070459;28;20608;-72
2024/02/15 06:24:06;;;;;;;6.78;2.60;;;1.30;66.40;;;;;;5069374;28;20063;-72
2024/02/15 06:26:33;;;;;;;3.85;3.35;;;1.30;66.40;;;;;;5070670;28;20082;-71
2024/02/15 06:40:36;;;;;;;6.53;1.73;;;1.30;66.00;;;;;;5069966;28;20047;-71
2024/02/15 06:43:03;;;;;;;3.63;1.88;;;1.40;66.20;;;;;;5069638;28;20040;-71
2024/02/15 06:45:31;;;;;;;4.38;2.45;;;1.40;66.00;;;;;;5069284;28;20078;-71
2024/02/15 06:47:58;;;;;;;3.97;1.73;;;1.40;65.90;;;;;;5069440;28;20123;-71
2024/02/15 06:50:26;;;;;;;4.63;1.90;;;1.40;65.80;;;;;;5068943;28;20106;-71
2024/02/15 06:52:53;;;;;;;5.40;2.38;;;1.40;65.40;;;;;;5074248;28;20036;-72
2024/02/15 06:55:21;;;;;;;4.95;2.85;;;1.40;66.20;;;;;;5072890;28;20510;-71
2024/02/15 06:57:48;;;;;;;2.65;1.98;;;1.50;66.60;;;;;;5074138;28;20450;-71
2024/02/15 07:00:15;;;;;;;4.68;2.95;;;1.50;66.70;;;;;;5073464;28;20439;-72
2024/02/15 07:02:44;;;;;;;2.58;1.55;;;1.50;66.20;;;;;;5074011;28;20135;-72
2024/02/15 07:05:10;;;;;;;1.27;0.73;;;1.60;66.80;;;;;;5072564;28;20420;-71
2024/02/15 07:07:38;;;;;;;16.15;4.07;;;1.70;66.70;;;;;;5074228;28;20139;-72
2024/02/15 07:10:06;;;;;;;17.83;6.72;;;1.80;66.50;;;;;;5072166;28;20039;-72
2024/02/15 07:12:32;;;;;;;13.38;9.13;;;1.90;66.30;;;;;;5072496;28;20124;-72
2024/02/15 07:14:58;;;;;;;;;;;2.00;66.40;;;;;;5074232;28;20032;-72
2024/02/15 07:17:24;;;;;;;11.05;6.50;;;2.10;66.40;;;;;;5072514;28;20062;-72
2024/02/15 07:19:51;;;;;;;7.82;5.72;;;2.20;66.50;;;;;;5072307;28;20234;-72
2024/02/15 07:22:17;;;;;;;6.95;3.53;;;2.40;66.00;;;;;;5073028;28;20089;-72
2024/02/15 07:24:43;;;;;;;6.97;3.50;;;2.60;65.70;;;;;;5072477;28;20028;-72
2024/02/15 07:27:12;;;;;;;13.18;5.45;;;2.70;65.20;;;;;;5073613;28;20052;-72
2024/02/15 07:29:38;;;;;;;5.85;4.32;;;2.80;66.00;;;;;;5073221;28;20036;-72
2024/02/15 07:32:06;;;;;;;6.13;4.65;;;3.00;65.70;;;;;;5071582;28;20340;-71
2024/02/15 07:37:16;;;;;;;9.30;3.95;;;3.20;65.20;;;;;;5073584;28;20055;-72
2024/02/15 07:39:42;;;;;;;9.40;3.42;;;3.40;65.10;;;;;;5055309;28;20017;-72
2024/02/15 07:42:08;;;;;;;8.10;4.90;;;3.50;64.80;;;;;;5072741;28;20120;-72
2024/02/15 07:44:36;;;;;;;6.15;2.92;;;3.70;64.70;;;;;;5073525;28;20033;-72
2024/02/15 07:47:04;;;;;;;5.10;2.78;;;3.80;64.40;;;;;;5055073;28;20116;-72
2024/02/15 07:49:31;;;;;;;9.25;3.92;;;3.90;63.50;;;;;;5071975;28;20029;-72
2024/02/15 07:51:58;;;;;;;10.32;3.67;;;4.10;63.90;;;;;;5070897;28;20040;-72
2024/02/15 07:54:24;;;;;;;8.05;4.35;;;4.20;63.80;;;;;;5072960;28;20031;-71
2024/02/15 07:56:51;;;;;;;8.60;3.85;;;4.30;64.00;;;;;;5071346;28;20060;-72
2024/02/15 07:59:18;;;;;;;5.25;2.53;;;4.40;63.90;;;;;;5071515;28;20054;-71
2024/02/15 08:01:47;;;;;;;4.57;2.08;;;4.50;63.70;;;;;;5070890;28;20052;-72
2024/02/15 08:04:13;;;;;;;7.65;3.72;;;4.70;63.80;;;;;;5072634;28;20040;-72
2024/02/15 08:06:39;;;;;;;4.55;3.10;;;4.80;63.50;;;;;;5071561;28;20033;-72
2024/02/15 08:09:05;;;;;;;5.28;3.33;;;5.00;63.20;;;;;;5071245;28;20039;-72
2024/02/15 08:11:31;;;;;;;5.00;3.40;;;5.10;62.90;;;;;;5071778;28;20032;-72
2024/02/15 08:13:59;;;;;;;10.15;5.25;;;5.30;62.60;;;;;;5071104;28;20029;-72
2024/02/15 08:16:27;;;;;;;10.38;4.68;;;5.50;62.30;;;;;;5071342;28;20025;-72
2024/02/15 08:21:41;;;;;;;6.75;3.60;;;5.90;60.60;;;;;;5070799;28;20040;-72
2024/02/15 08:24:08;;;;;;;10.13;5.20;;;6.30;60.60;;;;;;5071212;28;20021;-72
2024/02/15 08:26:54;;;;;;;5.75;3.03;;;6.60;60.00;;;;;;5071321;28;20496;-72
2024/02/15 08:29:20;;;;;;;5.35;2.72;;;6.90;59.10;;;;;;5070853;28;20100;-72
2024/02/15 08:31:46;;;;;;;3.90;2.13;;;7.20;58.70;;;;;;5070456;28;20044;-71
2024/02/15 08:34:14;;;;;;;3.50;2.35;;;7.40;57.90;;;;;;5070886;28;20024;-72
2024/02/15 08:36:40;;;;;;;5.22;1.98;;;7.70;57.30;;;;;;5070917;28;20083;-72
2024/02/15 08:39:08;;;;;;;3.15;2.38;;;7.90;56.70;;;;;;5072092;28;20043;-72
2024/02/15 08:41:34;;;;;;;6.70;4.43;;;8.10;56.10;;;;;;5071538;28;20041;-72
2024/02/15 08:44:01;;;;;;;4.57;2.90;;;8.30;55.80;;;;;;5071835;28;20025;-72
2024/02/15 08:46:27;;;;;;;5.00;3.33;;;8.60;55.40;;;;;;5071936;28;20028;-72
2024/02/15 08:48:53;;;;;;;6.28;4.22;;;8.90;54.20;;;;;;5070579;28;20025;-72
2024/02/15 08:51:20;;;;;;;3.13;2.50;;;9.40;53.10;;;;;;5069913;28;20449;-72
2024/02/15 08:53:47;;;;;;;8.88;3.55;;;10.20;51.20;;;;;;5071567;28;20043;-73
2024/02/15 08:56:13;;;;;;;1.58;1.05;;;10.60;49.40;;;;;;5070548;28;20112;-72
2024/02/15 08:58:40;;;;;;;3.78;2.13;;;10.70;49.00;;;;;;5071408;28;20043;-72
2024/02/15 09:01:08;;;;;;;1.70;1.02;;;11.00;48.80;;;;;;5069960;28;20036;-72
2024/02/15 09:03:34;;;;;;;8.85;2.05;;;11.20;48.10;;;;;;5071357;28;20106;-72
2024/02/15 09:06:03;;;;;;;5.28;3.53;;;11.50;47.10;;;;;;5070389;28;20037;-72
2024/02/15 09:08:30;;;;;;;2.22;1.73;;;11.90;45.80;;;;;;5071954;28;20055;-73
2024/02/15 09:10:58;;;;;;;3.75;1.98;;;12.50;45.30;;;;;;5070941;28;20045;-73
2024/02/15 09:13:24;;;;;;;1.70;1.05;;;14.10;41.90;;;;;;5071261;28;20032;-72
2024/02/15 09:15:50;;;;;;;1.80;1.10;;;14.60;39.50;;;;;;5071525;28;20060;-72
2024/02/15 09:18:22;;;;;;;1.98;1.25;;;15.40;37.90;;;;;;5070324;28;20497;-72
2024/02/15 09:20:55;;;;;;;2.08;1.90;;;15.60;36.20;;;;;;5069398;28;20113;-73
2024/02/15 09:23:23;;;;;;;3.88;2.55;;;16.00;36.60;;;;;;5070361;28;20135;-72
2024/02/15 09:25:51;;;;;;;1.42;1.10;;;16.20;35.40;;;;;;5069956;28;20474;-72
2024/02/15 09:31:03;;;;;;;2.22;1.23;;;16.50;34.60;;;;;;5069791;28;20047;-72
2024/02/15 09:33:29;;;;;;;3.65;1.58;;;16.60;34.70;;;;;;5069943;28;20071;-72
2024/02/15 09:35:55;;;;;;;0.60;0.52;;;16.60;34.10;;;;;;5069980;28;20382;-72
2024/02/15 09:38:21;;;;;;;2.58;1.08;;;16.70;34.50;;;;;;5070191;28;20102;-72
2024/02/15 09:43:52;;;;;;;0.88;0.68;;;16.70;34.70;;;;;;5070146;28;19932;-72
2024/02/15 09:46:17;;;;;;;;;;;16.30;33.40;;;;;;5070241;28;20105;-72
2024/02/15 09:48:50;;;;;;;2.13;1.00;;;16.50;33.10;;;;;;5071174;28;19938;-72
2024/02/15 09:51:18;;;;;;;1.40;0.98;;;16.40;33.20;;;;;;5069239;28;20033;-72
2024/02/15 09:53:46;;;;;;;3.72;1.40;;;16.80;32.90;;;;;;5069690;28;20039;-72
2024/02/15 09:56:14;;;;;;;1.10;0.73;;;17.40;30.90;;;;;;5069788;28;20478;-72
2024/02/15 09:58:41;;;;;;;1.10;0.90;;;17.40;30.60;;;;;;5069494;28;20044;-72
2024/02/15 10:01:10;;;;;;;2.10;1.13;;;17.40;31.10;;;;;;5070564;28;20378;-72
2024/02/15 10:06:22;;;;;;;2.67;1.20;;;18.80;29.10;;;;;;5070202;28;20087;-72
2024/02/15 10:08:48;;;;;;;2.38;0.80;;;18.90;28.90;;;;;;5070816;28;20039;-72
2024/02/15 10:11:15;;;;;;;1.00;0.57;;;18.70;28.60;;;;;;5068843;28;20049;-72
2024/02/15 10:13:44;;;;;;;1.90;0.95;;;18.50;28.90;;;;;;5070703;28;20048;-72
2024/02/15 10:16:25;;;;;;;2.25;0.93;;;18.30;29.40;;;;;;5069641;28;20016;-72
2024/02/15 10:18:51;;;;;;;2.20;1.20;;;18.30;30.10;;;;;;5070589;28;20447;-72
2024/02/15 10:21:36;;;;;;;;;;;18.50;30.10;;;;;;5069384;28;20154;-72
2024/02/15 10:24:22;;;;;;;1.27;0.65;;;18.30;29.40;;;;;;5069418;28;19931;-72
2024/02/15 10:26:49;;;;;;;2.50;1.00;;;17.90;30.40;;;;;;5073081;28;20017;-72
2024/02/15 10:29:17;;;;;;;1.10;0.65;;;17.60;31.60;;;;;;5073405;28;20045;-72
2024/02/15 10:32:03;;;;;;;3.33;0.80;;;17.20;30.90;;;;;;5056058;28;20056;-72
2024/02/15 10:34:30;;;;;;;1.80;0.85;;;16.90;31.60;;;;;;5056630;28;20025;-72
2024/02/15 10:37:12;;;;;;;3.22;1.85;;;17.00;30.50;;;;;;5056269;28;20044;-72
2024/02/15 10:39:38;;;;;;;1.77;0.95;;;17.20;30.00;;;;;;5073150;28;20501;-72
2024/02/15 10:42:10;;;;;;;1.70;0.98;;;17.40;29.00;;;;;;5074019;28;20040;-72
2024/02/15 10:47:23;;;;;;;0.65;0.40;;;18.10;28.90;;;;;;5073261;28;20052;-72
2024/02/15 10:49:49;;;;;;;0.88;0.45;;;18.10;29.30;;;;;;5074151;28;20043;-72
2024/02/15 10:52:18;;;;;;;0.95;0.45;;;19.00;28.30;;;;;;5073690;28;20048;-72
2024/02/15 10:55:00;;;;;;;1.55;0.65;;;19.70;27.60;;;;;;5072829;28;20037;-72
2024/02/15 10:57:32;;;;;;;1.45;0.88;;;20.20;26.50;;;;;;5072518;28;20405;-72
2024/02/15 11:00:10;;;;;;;0.57;0.52;;;20.20;25.10;;;;;;5073944;28;20029;-72
2024/02/15 11:03:02;;;;;;;1.17;0.70;;;19.90;26.70;;;;;;5057240;28;20493;-72
2024/02/15 11:05:53;;;;;;;2.00;1.13;;;19.50;27.30;;;;;;5072765;28;20480;-72
2024/02/15 11:08:19;;;;;;;1.02;0.70;;;19.30;26.50;;;;;;5073832;28;20040;-72
2024/02/15 11:10:45;;;;;;;;;;;19.30;27.40;;;;;;5072403;28;20078;-72
2024/02/15 11:13:13;;;;;;;0.88;0.60;;;20.40;24.10;;;;;;5072537;28;19928;-71
2024/02/15 11:16:01;;;;;;;0.45;0.45;;;20.30;24.90;;;;;;5072561;28;20089;-72
2024/02/15 11:19:04;;;;;;;0.85;0.52;;;20.00;25.40;;;;;;5072821;28;20033;-72
2024/02/15 11:22:10;;;;;;;0.52;0.40;;;20.50;25.20;;;;;;5055072;28;20040;-72
2024/02/15 11:24:39;;;;;;;0.75;0.38;;;20.70;24.10;;;;;;5072449;28;20039;-72
2024/02/15 11:27:07;;;;;;;0.75;0.50;;;21.70;23.70;;;;;;5071915;28;20093;-73
2024/02/15 11:29:58;;;;;;;1.40;0.70;;;22.70;23.10;;;;;;5071625;28;20033;-72
2024/02/15 11:33:09;;;;;;;1.30;0.40;;;23.20;21.60;;;;;;5073114;28;20075;-72
2024/02/15 11:35:35;;;;;;;1.00;0.40;;;22.90;20.70;;;;;;5072970;28;20032;-72
2024/02/15 11:38:03;;;;;;;0.17;0.17;;;22.60;21.00;;;;;;5071647;28;20051;-72
2024/02/15 11:41:11;;;;;;;0.70;0.60;;;22.50;21.90;;;;;;5071526;28;20082;-72
2024/02/15 11:43:57;;;;;;;1.92;0.43;;;22.80;22.10;;;;;;5072207;28;20028;-72
2024/02/15 11:46:25;;;;;;;1.08;0.65;;;22.50;21.60;;;;;;5073147;28;20033;-73
2024/02/15 11:48:56;;;;;;;0.55;0.50;;;22.90;20.60;;;;;;5071692;28;20367;-72
2024/02/15 11:51:44;;;;;;;1.10;0.57;;;23.80;19.70;;;;;;5071266;28;20444;-72
2024/02/15 11:54:14;;;;;;;0.22;0.22;;;24.70;19.80;;;;;;5072986;28;20040;-72
2024/02/15 11:57:09;;;;;;;3.53;1.95;;;24.30;19.60;;;;;;5055323;28;20020;-73
2024/02/15 12:18:38;;;;;;;0.93;0.38;;;24.80;19.40;;;;;;5071778;28;20056;-73
2024/02/15 12:19:28;;;;;;;1.17;0.80;;;27.20;17.20;;;;;;5072580;28;20042;-72
2024/02/15 12:21:55;;;;;;;1.27;0.57;;;25.90;17.70;;;;;;5070662;28;20040;-72
2024/02/15 12:24:26;;;;;;;1.13;0.85;;;25.40;18.70;;;;;;5071133;28;20493;-72
2024/02/15 12:27:01;;;;;;;1.67;1.15;;;25.50;18.20;;;;;;5071031;28;20028;-73
2024/02/15 12:29:28;;;;;;;0.73;0.57;;;25.80;18.00;;;;;;5071081;28;20020;-72
2024/02/15 12:31:54;;;;;;;1.52;1.42;;;26.40;17.80;;;;;;5070396;28;20409;-73
2024/02/15 12:34:20;;;;;;;;;;;26.60;17.00;;;;;;5071565;28;20063;-72
2024/02/15 12:36:49;;;;;;;1.65;1.00;;;26.50;17.20;;;;;;5072299;28;19920;-73
2024/02/15 12:39:24;;;;;;;1.02;0.95;;;26.50;17.50;;;;;;5072139;28;20113;-72
2024/02/15 12:41:51;;;;;;;0.93;0.43;;;26.80;17.10;;;;;;5070176;28;20045;-72
2024/02/15 12:44:22;;;;;;;0.32;0.30;;;27.70;16.00;;;;;;5070950;28;20400;-72
2024/02/15 12:47:32;;;;;;;0.55;0.50;;;28.80;15.40;;;;;;5070668;28;20056;-72
2024/02/15 12:49:58;;;;;;;13.23;1.55;;;30.00;14.60;;;;;;5071424;28;20116;-72
2024/02/15 12:52:47;;;;;;;0.68;0.68;;;30.20;14.80;;;;;;5069925;28;20033;-72
2024/02/15 12:55:34;;;;;;;0.60;0.50;;;32.00;12.60;;;;;;5071720;28;20382;-72
2024/02/15 12:58:20;;;;;;;0.80;0.65;;;32.90;11.10;;;;;;5070497;28;20037;-72
2024/02/15 13:00:46;;;;;;;0.40;0.40;;;33.50;11.10;;;;;;5069976;28;20064;-72
2024/02/15 13:03:15;;;;;;;0.52;0.45;;;33.70;11.30;;;;;;5071703;28;20399;-72
2024/02/15 13:05:41;;;;;;;2.00;1.25;;;33.40;11.30;;;;;;5070198;28;20037;-72
2024/02/15 13:10:52;;;;;;;1.52;1.02;;;34.80;9.90;;;;;;5070909;28;20040;-72
2024/02/15 13:13:20;;;;;;;1.40;1.02;;;35.10;10.60;;;;;;5071947;28;20127;-72
2024/02/15 13:15:46;;;;;;;1.48;1.15;;;35.30;10.00;;;;;;5071449;28;20519;-72
2024/02/15 13:18:13;;;;;;;1.95;0.80;;;35.20;10.60;;;;;;5071872;28;20059;-72
2024/02/15 13:20:40;;;;;;;1.02;0.60;;;35.40;10.90;;;;;;5071080;28;20028;-72
2024/02/15 13:23:08;;;;;;;1.13;0.85;;;34.80;10.80;;;;;;5070238;28;20037;-72
2024/02/15 13:25:53;;;;;;;2.38;0.95;;;34.70;10.90;;;;;;5070095;28;20044;-72
2024/02/15 13:28:19;;;;;;;0.30;0.30;;;35.00;10.60;;;;;;5053116;28;20151;-72
2024/02/15 13:30:46;;;;;;;1.10;0.77;;;34.80;10.40;;;;;;5069386;28;20072;-72
2024/02/15 13:33:13;;;;;;;0.77;0.73;;;36.20;10.50;;;;;;5070173;28;20037;-72
2024/02/15 13:35:39;;;;;;;1.90;0.95;;;36.90;8.60;;;;;;5069969;28;20028;-72
2024/02/15 13:38:08;;;;;;;0.50;0.50;;;36.70;9.10;;;;;;5070142;28;20035;-73
2024/02/15 13:40:35;;;;;;;0.38;0.30;;;36.00;9.10;;;;;;5069304;28;20037;-73
2024/02/15 13:43:04;;;;;;;0.40;0.40;;;37.00;9.70;;;;;;5053205;28;20036;-72
2024/02/15 13:45:52;;;;;;;0.77;0.70;;;37.70;8.40;;;;;;5053584;28;20429;-72
2024/02/15 13:48:18;;;;;;;0.30;0.30;;;37.40;8.80;;;;;;5071615;28;20062;-72
2024/02/15 13:50:44;;;;;;;0.47;0.47;;;37.60;9.10;;;;;;5069187;28;20044;-72
2024/02/15 13:53:10;;;;;;;0.55;0.47;;;37.30;8.30;;;;;;5069843;28;20104;-72
2024/02/15 13:55:38;;;;;;;0.50;0.50;;;35.60;9.40;;;;;;5070913;28;20032;-72
2024/02/15 13:58:04;;;;;;;0.70;0.65;;;36.20;9.20;;;;;;5071107;28;20102;-72
2024/02/15 14:00:31;;;;;;;0.77;0.68;;;36.30;9.90;;;;;;5073271;28;20032;-72
2024/02/15 14:02:59;;;;;;;0.30;0.30;;;35.50;9.60;;;;;;5077667;28;20078;-72
2024/02/15 14:05:28;;;;;;;1.08;0.70;;;34.40;10.50;;;;;;5076511;28;20504;-72
2024/02/15 14:08:13;;;;;;;0.85;0.55;;;33.70;10.40;;;;;;5059628;28;20040;-72
2024/02/15 14:10:39;;;;;;;0.85;0.73;;;32.50;12.30;;;;;;5076825;28;20029;-72